TLPL/UVF METAR and TAF weather

Enter ICAO airport designator
Station Type Date Time Source
TLPL METAR 2020/04/03 22:00 UTC NOAA

TLPL 032200Z 09005KT 9999 FEW024 28/23 Q1012


Station Type Date Time Source
TLPL Decoded METAR 2020/04/03 22:00 UTC NOAA

Hewanorra International Airport, Saint Lucia (TLPL) 13-45N 060-57W 10M
Apr 03, 2020 - 06:00 PM EDT / 2020.04.03 2200 UTC
Wind: from the E (090 degrees) at 6 MPH (5 KT):0
Visibility: greater than 7 mile(s):0
Sky conditions: mostly clear
Temperature: 82 F (28 C)
Dew Point: 73 F (23 C)
Relative Humidity: 74%
Pressure (altimeter): 29.88 in. Hg (1012 hPa)
ob: TLPL 032200Z 09005KT 9999 FEW024 28/23 Q1012
cycle: 22

Station Type Date Time Source
TLPL TAF 2020/04/03 18:53 UTC NOAA

TAF TLPL 031707Z 0318/0418 12013KT 9999 SCT025

Example: see airport list